createdAt,value
2023-03-22T00:05:37.879Z,8.10
2023-03-22T00:11:39.713Z,8.10
2023-03-22T00:17:42.100Z,7.90
2023-03-22T00:23:44.833Z,7.80
2023-03-22T00:29:46.637Z,7.80
2023-03-22T00:35:57.411Z,8.00
2023-03-22T00:42:02.397Z,8.00
2023-03-22T00:48:04.501Z,8.00
2023-03-22T00:54:06.675Z,8.00
2023-03-22T01:00:12.960Z,8.00
2023-03-22T01:06:14.948Z,7.90
2023-03-22T01:12:18.448Z,8.00
2023-03-22T01:18:20.462Z,7.90
2023-03-22T01:24:22.790Z,7.90
2023-03-22T01:30:24.976Z,7.80
2023-03-22T01:36:27.030Z,7.80
2023-03-22T01:42:30.757Z,7.70
2023-03-22T01:48:46.464Z,7.70
2023-03-22T01:54:53.401Z,7.60
2023-03-22T02:01:11.577Z,7.60
2023-03-22T02:07:27.119Z,7.70
2023-03-22T02:13:42.449Z,7.70
2023-03-22T02:20:46.561Z,7.80
2023-03-22T02:27:32.817Z,7.90
2023-03-22T02:34:15.609Z,8.00
2023-03-22T02:41:00.100Z,8.10
2023-03-22T02:47:07.632Z,8.10
2023-03-22T02:53:31.173Z,8.20
2023-03-22T02:59:38.310Z,8.20
2023-03-22T03:05:44.451Z,8.10
2023-03-22T03:11:50.525Z,8.10
2023-03-22T03:18:11.474Z,8.00
2023-03-22T03:24:32.130Z,8.00
2023-03-22T03:30:56.206Z,8.00
2023-03-22T03:37:11.876Z,8.00
2023-03-22T03:43:15.479Z,8.00
2023-03-22T03:49:17.990Z,8.00
2023-03-22T03:55:21.485Z,8.00
2023-03-22T04:01:24.094Z,7.90
2023-03-22T04:07:45.962Z,8.00
2023-03-22T04:13:48.233Z,8.00
2023-03-22T04:19:56.604Z,8.00
2023-03-22T04:25:59.850Z,8.00
2023-03-22T04:32:23.079Z,8.10
2023-03-22T04:38:26.407Z,8.10
2023-03-22T04:44:29.873Z,8.10
2023-03-22T04:50:32.703Z,8.10
2023-03-22T04:56:38.045Z,8.10
2023-03-22T05:02:41.482Z,8.00
2023-03-22T05:08:50.223Z,7.90
2023-03-22T05:14:53.696Z,7.90
2023-03-22T05:21:06.655Z,7.90
2023-03-22T05:27:10.940Z,7.80
2023-03-22T05:33:14.238Z,7.70
2023-03-22T05:39:20.835Z,7.60
2023-03-22T05:45:23.064Z,7.50
2023-03-22T05:51:41.727Z,7.60
2023-03-22T05:57:46.827Z,7.80
2023-03-22T06:03:49.540Z,8.10
2023-03-22T06:09:59.958Z,8.40
2023-03-22T06:16:05.738Z,8.50
2023-03-22T06:22:07.674Z,8.70
2023-03-22T06:28:11.918Z,8.90
2023-03-22T06:34:19.805Z,9.00
2023-03-22T06:40:22.995Z,9.10
2023-03-22T06:46:24.917Z,9.20
2023-03-22T06:52:36.197Z,9.50
2023-03-22T06:58:38.152Z,9.70
2023-03-22T07:04:40.167Z,10.10
2023-03-22T07:10:43.679Z,10.10
2023-03-22T07:16:46.022Z,10.20
2023-03-22T07:22:49.999Z,10.40
2023-03-22T07:28:53.336Z,10.40
2023-03-22T07:35:01.036Z,10.30
2023-03-22T07:41:04.376Z,10.60
2023-03-22T07:47:39.620Z,10.60
2023-03-22T07:54:03.056Z,10.60
2023-03-22T08:00:06.967Z,10.60
2023-03-22T08:06:21.541Z,11.00
2023-03-22T08:12:23.560Z,11.20
2023-03-22T08:18:34.068Z,11.50
2023-03-22T08:24:36.213Z,11.90
2023-03-22T08:30:42.215Z,12.20
2023-03-22T08:36:44.233Z,12.30
2023-03-22T08:42:46.206Z,12.50
2023-03-22T08:48:50.468Z,12.70
2023-03-22T08:55:17.372Z,13.10
2023-03-22T09:01:38.136Z,13.40
2023-03-22T09:07:42.583Z,13.40
2023-03-22T09:13:52.987Z,13.10
2023-03-22T09:20:09.395Z,13.00
2023-03-22T09:26:15.111Z,12.90
2023-03-22T09:32:17.829Z,12.70
2023-03-22T09:38:27.310Z,12.90
2023-03-22T09:44:42.084Z,12.90
2023-03-22T09:50:51.296Z,13.30
2023-03-22T09:57:08.160Z,13.70
2023-03-22T10:04:00.070Z,13.90
2023-03-22T10:10:28.211Z,14.10
2023-03-22T10:16:34.376Z,14.10
2023-03-22T10:22:41.803Z,14.20
2023-03-22T10:28:47.756Z,14.20
2023-03-22T10:34:49.551Z,13.90
2023-03-22T10:40:54.833Z,13.60
2023-03-22T10:47:00.676Z,13.60
2023-03-22T10:53:13.558Z,13.60
2023-03-22T10:59:49.763Z,14.10
2023-03-22T11:06:01.841Z,14.20
2023-03-22T11:12:03.974Z,14.30
2023-03-22T11:18:07.398Z,14.30
2023-03-22T11:24:14.268Z,14.30
2023-03-22T11:30:37.213Z,14.30
2023-03-22T11:36:44.175Z,14.40
2023-03-22T11:42:47.730Z,14.40
2023-03-22T11:49:00.485Z,14.60
2023-03-22T11:55:03.280Z,14.60
2023-03-22T12:01:06.748Z,14.90
2023-03-22T12:07:19.862Z,15.20
2023-03-22T12:13:42.684Z,14.70
2023-03-22T12:20:06.216Z,14.60
2023-03-22T12:26:29.492Z,14.70
2023-03-22T12:32:36.900Z,15.00
2023-03-22T12:38:51.128Z,15.00
2023-03-22T12:45:05.559Z,14.70
2023-03-22T12:51:12.331Z,14.80
2023-03-22T12:57:16.343Z,14.90
2023-03-22T13:03:18.675Z,15.30
2023-03-22T13:09:34.934Z,15.60
2023-03-22T13:15:42.647Z,15.50
2023-03-22T13:21:47.927Z,15.20
2023-03-22T13:27:59.069Z,14.90
2023-03-22T13:34:04.089Z,14.80
2023-03-22T13:40:32.083Z,14.90
2023-03-22T13:46:36.798Z,15.00
2023-03-22T13:52:43.764Z,15.00
2023-03-22T13:58:50.970Z,15.10
2023-03-22T14:05:14.627Z,15.10
2023-03-22T14:11:46.830Z,15.00
2023-03-22T14:18:21.076Z,15.20
